createdAt,value
2018-12-11T00:00:31.286Z,979.8
2018-12-11T00:01:32.798Z,979.9
2018-12-11T00:02:35.030Z,979.9
2018-12-11T00:03:36.335Z,980
2018-12-11T00:04:37.729Z,980
2018-12-11T00:05:39.551Z,979.8
2018-12-11T00:06:40.793Z,980
2018-12-11T00:07:42.061Z,979.9
2018-12-11T00:08:43.323Z,979.9
2018-12-11T00:09:44.654Z,979.9
2018-12-11T00:10:48.669Z,980
2018-12-11T00:11:50.484Z,980.1
2018-12-11T00:12:54.084Z,980.1
2018-12-11T00:13:57.184Z,980
2018-12-11T00:15:00.053Z,980
2018-12-11T00:16:03.354Z,980
2018-12-11T00:17:04.650Z,980
2018-12-11T00:18:06.051Z,979.8
2018-12-11T00:19:07.701Z,980
2018-12-11T00:20:09.349Z,980
2018-12-11T00:21:10.629Z,980.1
2018-12-11T00:22:11.944Z,979.9
2018-12-11T00:23:13.200Z,980
2018-12-11T00:24:14.619Z,979.9
2018-12-11T00:25:15.940Z,980
2018-12-11T00:26:17.350Z,980
2018-12-11T00:27:18.627Z,980
2018-12-11T00:28:20.199Z,979.9
2018-12-11T00:29:24.334Z,980
2018-12-11T00:30:26.205Z,980.1
2018-12-11T00:31:30.361Z,980.2
2018-12-11T00:32:31.637Z,980.1
2018-12-11T00:33:32.899Z,980.2
2018-12-11T00:34:36.921Z,980.1
2018-12-11T00:35:38.261Z,980
2018-12-11T00:36:39.541Z,980.1
2018-12-11T00:37:40.799Z,979.9
2018-12-11T00:38:42.543Z,980
2018-12-11T00:39:43.889Z,980
2018-12-11T00:40:45.198Z,979.9
2018-12-11T00:41:46.480Z,979.9
2018-12-11T00:42:47.764Z,980
2018-12-11T00:43:49.012Z,979.9
2018-12-11T00:44:50.260Z,979.9
2018-12-11T00:45:51.554Z,980.1
2018-12-11T00:46:52.857Z,980.1
2018-12-11T00:47:54.129Z,980
2018-12-11T00:48:55.396Z,979.9
2018-12-11T00:49:56.878Z,980
2018-12-11T00:50:58.276Z,979.8
2018-12-11T00:51:59.532Z,979.9
2018-12-11T00:53:00.821Z,979.9
2018-12-11T00:54:02.157Z,980.1
2018-12-11T00:55:03.422Z,980.1
2018-12-11T00:56:04.740Z,980.1
2018-12-11T00:57:05.984Z,980
2018-12-11T00:58:07.266Z,980
2018-12-11T00:59:08.525Z,980
2018-12-11T01:00:09.820Z,980.1
2018-12-11T01:01:11.333Z,980.1
2018-12-11T01:02:12.619Z,980
2018-12-11T01:03:13.876Z,980
2018-12-11T01:04:15.132Z,980
2018-12-11T01:05:16.430Z,980
2018-12-11T01:06:17.799Z,980
2018-12-11T01:07:19.063Z,979.9
2018-12-11T01:08:20.325Z,980.1
2018-12-11T01:09:21.642Z,980.1
2018-12-11T01:10:22.915Z,980.1
2018-12-11T01:11:24.588Z,980
2018-12-11T01:12:25.847Z,980.2
2018-12-11T01:13:27.113Z,980.1
2018-12-11T01:14:28.388Z,980.1
2018-12-11T01:15:29.655Z,979.9
2018-12-11T01:16:30.966Z,980
2018-12-11T01:17:32.261Z,979.9
2018-12-11T01:18:33.518Z,980
2018-12-11T01:19:35.147Z,980
2018-12-11T01:20:37.642Z,980.2
2018-12-11T01:21:38.932Z,980.1
2018-12-11T01:22:40.187Z,980.1
2018-12-11T01:23:41.464Z,980
2018-12-11T01:24:42.721Z,980.1
2018-12-11T01:25:44.026Z,980.1
2018-12-11T01:26:45.616Z,980.1
2018-12-11T01:27:46.905Z,980.1
2018-12-11T01:28:48.176Z,980.2
2018-12-11T01:29:49.704Z,980.3
2018-12-11T01:30:51.917Z,980.3
2018-12-11T01:31:53.200Z,980.2
2018-12-11T01:32:54.504Z,980.3
2018-12-11T01:33:55.769Z,980.2
2018-12-11T01:34:57.143Z,980.3
2018-12-11T01:35:59.197Z,980.2
2018-12-11T01:37:00.500Z,980.3
2018-12-11T01:38:01.760Z,980.3
2018-12-11T01:39:03.036Z,980.2
2018-12-11T01:40:04.736Z,980.2
2018-12-11T01:41:06.108Z,980.3
2018-12-11T01:42:10.107Z,980.2
2018-12-11T01:43:11.384Z,980.2
2018-12-11T01:44:12.637Z,980.2
2018-12-11T01:45:14.092Z,980.2
2018-12-11T01:46:15.407Z,980.2
2018-12-11T01:47:16.716Z,980.1
2018-12-11T01:48:18.000Z,980.3
2018-12-11T01:49:19.252Z,980.3
2018-12-11T01:50:20.536Z,980.1
2018-12-11T01:51:21.791Z,980.2
2018-12-11T01:52:23.056Z,980.2
2018-12-11T01:53:24.560Z,980.1
2018-12-11T01:54:25.836Z,980.3
2018-12-11T01:55:27.108Z,980.2
2018-12-11T01:56:28.398Z,980.2
2018-12-11T01:57:30.065Z,980.2
2018-12-11T01:58:31.369Z,980.2
2018-12-11T01:59:32.701Z,980.3
2018-12-11T02:00:33.969Z,980.3
2018-12-11T02:01:35.280Z,980.3
2018-12-11T02:02:40.996Z,980.3
2018-12-11T02:03:42.252Z,980.4
2018-12-11T02:04:43.531Z,980.3
2018-12-11T02:05:44.800Z,980.3
2018-12-11T02:06:46.063Z,980.3
2018-12-11T02:07:47.418Z,980.5
2018-12-11T02:08:48.827Z,980.2
2018-12-11T02:09:50.092Z,980.4
2018-12-11T02:10:51.335Z,980.2
2018-12-11T02:11:52.991Z,980.4
2018-12-11T02:12:54.525Z,980.4
2018-12-11T02:13:55.864Z,980.4
2018-12-11T02:14:57.120Z,980.3
2018-12-11T02:15:58.401Z,980.4
2018-12-11T02:16:59.671Z,980.4
2018-12-11T02:18:00.948Z,980.4
2018-12-11T02:19:02.244Z,980.3
2018-12-11T02:20:03.560Z,980.3
2018-12-11T02:21:04.877Z,980.3
2018-12-11T02:22:06.155Z,980.3
2018-12-11T02:23:07.444Z,980.4
2018-12-11T02:24:08.720Z,980.2
2018-12-11T02:25:09.993Z,980.4
2018-12-11T02:26:11.264Z,980.2
2018-12-11T02:27:12.529Z,980.4
2018-12-11T02:28:14.162Z,980.3
2018-12-11T02:29:15.806Z,980.3
2018-12-11T02:30:17.072Z,980.3
2018-12-11T02:31:18.362Z,980.2
2018-12-11T02:32:19.624Z,980.3
2018-12-11T02:33:20.926Z,980.3
2018-12-11T02:34:22.208Z,980.2
2018-12-11T02:35:23.617Z,980.3
2018-12-11T02:36:24.925Z,980.3
2018-12-11T02:37:26.615Z,980.2
2018-12-11T02:38:27.924Z,980.4
2018-12-11T02:39:29.202Z,980.1
2018-12-11T02:40:30.478Z,980.3
2018-12-11T02:41:31.757Z,980.3
2018-12-11T02:42:33.172Z,980.2
2018-12-11T02:43:34.452Z,980.5
2018-12-11T02:44:35.717Z,980.3
2018-12-11T02:45:36.984Z,980.4
2018-12-11T02:46:38.241Z,980.3
2018-12-11T02:47:39.772Z,980.1
2018-12-11T02:48:41.235Z,980.4
2018-12-11T02:49:42.731Z,980.3
2018-12-11T02:50:44.009Z,980.3
2018-12-11T02:51:45.289Z,980.3
2018-12-11T02:52:46.563Z,980.4
2018-12-11T02:53:47.877Z,980.3
2018-12-11T02:54:49.141Z,980.4
2018-12-11T02:55:50.411Z,980.2
2018-12-11T02:56:51.683Z,980.3
2018-12-11T02:57:54.218Z,980.3
2018-12-11T02:58:56.285Z,980.4
2018-12-11T02:59:57.760Z,980.4
2018-12-11T03:00:59.031Z,980.4
2018-12-11T03:02:00.303Z,980.4
2018-12-11T03:03:01.572Z,980.4
2018-12-11T03:04:05.996Z,980.4
2018-12-11T03:05:07.262Z,980.4
2018-12-11T03:06:08.555Z,980.5
2018-12-11T03:07:09.836Z,980.4
2018-12-11T03:08:11.079Z,980.3
2018-12-11T03:09:12.572Z,980.4
2018-12-11T03:10:13.851Z,980.5
2018-12-11T03:11:15.108Z,980.4
2018-12-11T03:12:16.624Z,980.5
2018-12-11T03:13:17.895Z,980.4
2018-12-11T03:14:19.747Z,980.5
2018-12-11T03:15:21.227Z,980.5
2018-12-11T03:16:22.477Z,980.4
2018-12-11T03:17:23.736Z,980.5
2018-12-11T03:18:24.986Z,980.4
2018-12-11T03:19:26.298Z,980.5
2018-12-11T03:20:27.572Z,980.4
2018-12-11T03:21:28.845Z,980.4
2018-12-11T03:22:30.142Z,980.4
2018-12-11T03:23:31.843Z,980.5
2018-12-11T03:24:33.142Z,980.5
2018-12-11T03:25:34.396Z,980.5
2018-12-11T03:26:35.669Z,980.6
2018-12-11T03:27:36.946Z,980.3
2018-12-11T03:28:38.148Z,980.4
2018-12-11T03:29:39.869Z,980.5
2018-12-11T03:30:41.145Z,980.6
2018-12-11T03:31:45.330Z,980.5
2018-12-11T03:32:46.627Z,980.5
2018-12-11T03:33:47.902Z,980.5
2018-12-11T03:34:49.187Z,980.4
2018-12-11T03:35:50.470Z,980.4
2018-12-11T03:36:51.725Z,980.5
2018-12-11T03:37:53.452Z,980.5
2018-12-11T03:38:54.981Z,980.6
2018-12-11T03:39:56.263Z,980.6
2018-12-11T03:40:57.537Z,980.5
2018-12-11T03:41:58.798Z,980.4
2018-12-11T03:43:00.056Z,980.5
2018-12-11T03:44:01.308Z,980.6
2018-12-11T03:45:02.633Z,980.6
2018-12-11T03:46:03.953Z,980.5
2018-12-11T03:47:05.340Z,980.5
2018-12-11T03:48:06.603Z,980.6
2018-12-11T03:49:07.901Z,980.6
2018-12-11T03:50:09.329Z,980.5
2018-12-11T03:51:10.598Z,980.5
2018-12-11T04:02:34.975Z,980.6
2018-12-11T04:03:36.277Z,980.4
2018-12-11T04:04:37.534Z,980.3
2018-12-11T04:05:38.817Z,980.4
2018-12-11T04:06:40.103Z,980.6
2018-12-11T04:07:41.436Z,980.5
2018-12-11T04:08:43.003Z,980.4
2018-12-11T04:09:44.278Z,980.4
2018-12-11T04:10:45.554Z,980.4
2018-12-11T04:11:46.823Z,980.5
2018-12-11T04:12:48.189Z,980.5
2018-12-11T04:13:49.452Z,980.4
2018-12-11T04:14:50.750Z,980.6
2018-12-11T04:15:52.034Z,980.5
2018-12-11T04:16:53.297Z,980.4
2018-12-11T04:17:55.708Z,980.6
2018-12-11T04:18:57.408Z,980.5
2018-12-11T04:19:58.947Z,980.6
2018-12-11T04:21:02.328Z,980.7
2018-12-11T04:22:03.626Z,980.6
2018-12-11T04:23:04.937Z,980.6
2018-12-11T04:24:06.209Z,980.5
2018-12-11T04:25:07.473Z,980.6
2018-12-11T04:26:08.740Z,980.5
2018-12-11T04:27:10.005Z,980.6
2018-12-11T04:28:11.304Z,980.5
2018-12-11T04:29:13.587Z,980.6
2018-12-11T04:30:14.943Z,980.6
2018-12-11T04:31:16.236Z,980.4
2018-12-11T04:32:17.506Z,980.4
2018-12-11T04:33:18.800Z,980.4
2018-12-11T04:34:20.057Z,980.6
2018-12-11T04:35:21.363Z,980.4
2018-12-11T04:36:22.626Z,980.6
2018-12-11T04:37:23.905Z,980.6
2018-12-11T04:38:25.276Z,980.3
2018-12-11T04:39:26.545Z,980.6
2018-12-11T04:40:27.831Z,980.7
2018-12-11T04:41:29.073Z,980.8
2018-12-11T04:42:30.336Z,980.8
2018-12-11T04:43:31.644Z,980.7
2018-12-11T04:44:32.917Z,980.8
2018-12-11T04:45:34.235Z,980.7
2018-12-11T04:46:35.853Z,980.8
2018-12-11T04:47:37.171Z,980.7
2018-12-11T04:48:38.999Z,980.8
2018-12-11T04:49:40.260Z,980.8
2018-12-11T04:50:41.739Z,980.8
2018-12-11T04:51:42.983Z,980.9
2018-12-11T04:52:44.241Z,980.9
2018-12-11T04:53:45.557Z,981
2018-12-11T04:54:49.291Z,980.8
2018-12-11T04:55:50.540Z,980.9
2018-12-11T04:56:51.801Z,980.9
2018-12-11T04:57:53.061Z,980.9
2018-12-11T04:58:54.349Z,980.9
2018-12-11T04:59:55.624Z,981
2018-12-11T05:00:56.900Z,980.8
2018-12-11T05:01:58.167Z,980.8
2018-12-11T05:02:59.412Z,980.9
2018-12-11T05:04:00.733Z,980.9
2018-12-11T05:05:03.200Z,981
2018-12-11T05:06:04.485Z,980.9
2018-12-11T05:07:05.743Z,980.9
2018-12-11T05:08:08.915Z,981
2018-12-11T05:09:10.203Z,980.9
2018-12-11T05:10:17.617Z,980.9
2018-12-11T05:11:18.890Z,980.9
2018-12-11T05:12:20.176Z,980.9
2018-12-11T05:13:21.459Z,980.9
2018-12-11T05:14:25.138Z,981
2018-12-11T05:15:26.420Z,980.8
2018-12-11T05:16:27.694Z,981
2018-12-11T05:17:29.463Z,980.9
2018-12-11T05:18:33.329Z,981
2018-12-11T05:19:34.641Z,981.1
2018-12-11T05:20:38.500Z,981.1
2018-12-11T05:21:39.804Z,981.1
2018-12-11T05:22:41.057Z,981.1
2018-12-11T05:23:42.320Z,981
2018-12-11T05:24:43.605Z,981
2018-12-11T05:25:44.854Z,981.1
2018-12-11T05:26:46.854Z,981
2018-12-11T05:27:48.112Z,981
2018-12-11T05:28:49.384Z,981.1
2018-12-11T05:29:50.681Z,980.9
2018-12-11T05:30:52.030Z,981.1
2018-12-11T05:31:53.277Z,981.1
2018-12-11T05:32:54.540Z,981.1
2018-12-11T05:33:55.800Z,981.1
2018-12-11T05:35:00.272Z,981
2018-12-11T05:36:01.547Z,981
2018-12-11T05:37:02.811Z,981
2018-12-11T05:38:04.468Z,981
2018-12-11T05:39:05.741Z,981
2018-12-11T05:40:07.054Z,981.1
2018-12-11T05:41:08.301Z,981
2018-12-11T05:42:09.553Z,980.9
2018-12-11T05:43:13.445Z,980.8
2018-12-11T05:44:14.728Z,981
2018-12-11T05:45:16.012Z,981
2018-12-11T05:46:17.335Z,981
2018-12-11T05:47:18.957Z,981.1
2018-12-11T05:48:20.221Z,981
2018-12-11T05:49:21.841Z,981
2018-12-11T05:50:23.411Z,981
2018-12-11T05:51:24.665Z,981
2018-12-11T05:52:25.915Z,981
2018-12-11T05:53:28.325Z,981.1
2018-12-11T05:54:29.596Z,981.2
2018-12-11T05:55:33.331Z,981.1
2018-12-11T05:56:35.708Z,981.1
2018-12-11T05:57:37.976Z,981.2
2018-12-11T05:58:39.299Z,980.7
2018-12-11T05:59:40.570Z,981.2
2018-12-11T06:00:41.898Z,981.1
2018-12-11T06:01:43.157Z,981.1
2018-12-11T06:02:47.537Z,981
2018-12-11T06:03:48.802Z,981.1
2018-12-11T06:04:50.144Z,981.2
2018-12-11T06:05:51.462Z,981.2
2018-12-11T06:06:52.728Z,981.1
2018-12-11T06:07:54.316Z,981.1
2018-12-11T06:08:55.848Z,981.1
2018-12-11T06:09:57.106Z,981.2
2018-12-11T06:10:58.442Z,981
2018-12-11T06:11:59.713Z,981.3
2018-12-11T06:13:03.964Z,981.2
2018-12-11T06:14:05.266Z,981.2
2018-12-11T06:15:06.513Z,981.2
2018-12-11T06:16:07.812Z,981.3
2018-12-11T06:17:09.088Z,981.2
2018-12-11T06:18:10.327Z,981.3
2018-12-11T06:19:11.583Z,981.3
2018-12-11T06:20:12.877Z,981.3
2018-12-11T06:21:14.209Z,981.3
2018-12-11T06:22:15.485Z,981.2
2018-12-11T06:23:16.747Z,981.2
2018-12-11T06:24:18.084Z,981.2
2018-12-11T06:25:19.365Z,981.3
2018-12-11T06:26:20.691Z,981.3
2018-12-11T06:27:21.985Z,981.2
2018-12-11T06:28:23.267Z,981.2
2018-12-11T06:29:24.540Z,981
2018-12-11T06:30:25.804Z,981.3
2018-12-11T06:31:27.892Z,981.2
2018-12-11T06:32:29.184Z,981.2
2018-12-11T06:33:30.468Z,981.2
2018-12-11T06:34:32.064Z,981.3
2018-12-11T06:35:33.721Z,981.2
2018-12-11T06:36:35.387Z,981.3
2018-12-11T06:37:36.644Z,981.4
2018-12-11T06:38:37.924Z,981.4
2018-12-11T06:39:39.231Z,981.2
2018-12-11T06:40:41.716Z,981.3
2018-12-11T06:41:43.023Z,981.3
2018-12-11T06:42:47.167Z,981.3
2018-12-11T06:43:48.435Z,981.2
2018-12-11T06:44:49.715Z,981.4
2018-12-11T06:45:50.993Z,981.5
2018-12-11T06:46:52.761Z,981.4
2018-12-11T06:47:54.083Z,981.4
2018-12-11T06:48:55.368Z,981.3
2018-12-11T06:49:56.685Z,981.3
2018-12-11T06:50:57.968Z,981.3
2018-12-11T06:51:59.361Z,981.4
2018-12-11T06:53:00.633Z,981.4
2018-12-11T06:54:05.011Z,981.4
2018-12-11T06:55:06.334Z,981.3
2018-12-11T06:56:07.625Z,981.4
2018-12-11T06:57:08.933Z,981.5
2018-12-11T06:58:10.207Z,981.5
2018-12-11T06:59:12.019Z,981.5
2018-12-11T07:00:13.295Z,981.4
2018-12-11T07:01:14.652Z,981.5
2018-12-11T07:02:15.953Z,981.3
2018-12-11T07:03:17.239Z,981.4
2018-12-11T07:04:18.561Z,981.4
2018-12-11T07:05:19.949Z,981.6
2018-12-11T07:06:21.229Z,981.6
2018-12-11T07:07:23.015Z,981.4
2018-12-11T07:08:24.285Z,981.5
2018-12-11T07:09:25.555Z,981.5
2018-12-11T07:10:26.815Z,981.5
2018-12-11T07:11:31.113Z,981.5
2018-12-11T07:12:32.433Z,981.7
2018-12-11T07:13:34.256Z,981.5
2018-12-11T07:14:36.857Z,981.6
2018-12-11T07:15:54.731Z,981.8
2018-12-11T07:16:58.328Z,981.7
2018-12-11T07:17:59.728Z,981.8
2018-12-11T07:19:01.050Z,981.6
2018-12-11T07:20:02.399Z,981.6
2018-12-11T07:21:04.039Z,981.6
2018-12-11T07:22:05.370Z,981.6
2018-12-11T07:23:06.709Z,981.5
2018-12-11T07:24:08.014Z,981.6
2018-12-11T07:25:09.737Z,981.5
2018-12-11T07:26:11.081Z,981.5
2018-12-11T07:27:12.424Z,981.7
2018-12-11T07:28:13.776Z,981.4
2018-12-11T07:29:15.304Z,981.6
2018-12-11T07:30:17.912Z,981.6
2018-12-11T07:31:19.484Z,981.3
2018-12-11T07:32:22.265Z,981.5
2018-12-11T07:33:24.371Z,981.6
2018-12-11T07:34:31.253Z,981.6
2018-12-11T07:35:32.967Z,981.6
2018-12-11T07:36:34.315Z,981.5
2018-12-11T07:37:35.801Z,981.4
2018-12-11T07:38:37.179Z,981.5
2018-12-11T07:39:38.585Z,981.5
2018-12-11T07:40:39.899Z,981.5
2018-12-11T07:41:41.269Z,981.6
2018-12-11T07:42:44.928Z,981.7
2018-12-11T07:43:46.339Z,981.7
2018-12-11T07:44:47.654Z,981.6
2018-12-11T07:45:48.984Z,981.8
2018-12-11T07:46:50.334Z,981.7
2018-12-11T07:47:51.670Z,981.8
2018-12-11T07:48:53.030Z,981.8
2018-12-11T07:49:55.644Z,981.8
2018-12-11T07:50:56.993Z,981.7
2018-12-11T07:51:58.292Z,981.7
2018-12-11T07:52:59.710Z,981.7
2018-12-11T07:54:01.101Z,981.7
2018-12-11T07:55:02.400Z,981.6
2018-12-11T07:56:05.829Z,981.7
2018-12-11T07:57:07.133Z,981.8
2018-12-11T07:58:08.475Z,981.8
2018-12-11T07:59:09.853Z,981.8
2018-12-11T08:00:11.136Z,981.7
2018-12-11T08:01:13.640Z,981.8
2018-12-11T08:02:14.955Z,981.7
2018-12-11T08:03:16.299Z,981.8
2018-12-11T08:04:17.656Z,981.8
2018-12-11T08:05:18.967Z,981.8
2018-12-11T08:06:20.270Z,981.9
2018-12-11T08:07:21.608Z,981.8
2018-12-11T08:08:26.210Z,981.9
2018-12-11T08:09:27.595Z,981.9
2018-12-11T08:10:28.905Z,981.9
2018-12-11T08:11:31.004Z,981.9
2018-12-11T08:12:32.294Z,981.9
2018-12-11T08:13:33.631Z,982
2018-12-11T08:14:37.548Z,981.8
2018-12-11T08:15:38.905Z,982
2018-12-11T08:16:40.187Z,981.9
2018-12-11T08:17:47.184Z,981.9
2018-12-11T08:18:48.534Z,981.9
2018-12-11T08:19:49.869Z,981.9
2018-12-11T08:20:54.092Z,982
2018-12-11T08:21:56.477Z,982
2018-12-11T08:23:02.099Z,981.8
2018-12-11T08:24:04.169Z,982
2018-12-11T08:25:05.738Z,982
2018-12-11T08:26:07.158Z,981.8
2018-12-11T08:27:08.726Z,982
2018-12-11T08:28:10.071Z,982
2018-12-11T08:29:14.494Z,982
2018-12-11T08:30:16.592Z,982
2018-12-11T08:31:21.518Z,982
2018-12-11T08:32:23.304Z,982
2018-12-11T08:33:24.722Z,981.9
2018-12-11T08:34:27.353Z,982
2018-12-11T08:35:29.697Z,982
2018-12-11T08:36:31.280Z,982
2018-12-11T08:37:32.874Z,982.1
2018-12-11T08:38:34.258Z,982.1
2018-12-11T08:39:41.149Z,981.8
2018-12-11T08:40:42.845Z,982.1
2018-12-11T08:41:44.513Z,982
2018-12-11T08:42:46.531Z,982.1
2018-12-11T08:43:50.461Z,982.1
2018-12-11T08:44:52.189Z,982.1
2018-12-11T08:45:55.826Z,981.7
2018-12-11T08:46:57.256Z,981.9
2018-12-11T08:47:58.737Z,982
2018-12-11T08:49:00.218Z,981.8
2018-12-11T08:50:01.621Z,982
2018-12-11T08:51:03.134Z,981.9
2018-12-11T08:52:04.597Z,982
2018-12-11T08:53:06.055Z,981.8
2018-12-11T08:54:07.424Z,982
2018-12-11T08:55:09.912Z,982
2018-12-11T08:56:12.340Z,981.6
2018-12-11T08:57:15.001Z,982
2018-12-11T08:58:17.817Z,982
2018-12-11T08:59:19.367Z,981.9
2018-12-11T09:00:20.816Z,982
2018-12-11T09:01:25.047Z,981.6
2018-12-11T09:02:26.538Z,981.9
2018-12-11T09:03:28.585Z,982
2018-12-11T09:04:30.029Z,981.9
2018-12-11T09:05:31.651Z,982
2018-12-11T09:06:35.321Z,981.9
2018-12-11T09:07:37.036Z,982
2018-12-11T09:08:40.742Z,982
2018-12-11T09:09:43.638Z,982
2018-12-11T09:10:45.113Z,981.6
2018-12-11T09:11:47.811Z,981.8
2018-12-11T09:12:51.379Z,981.6
2018-12-11T09:13:52.835Z,982
2018-12-11T09:14:54.635Z,981.5
2018-12-11T09:15:58.559Z,982.1
2018-12-11T09:17:00.046Z,982
2018-12-11T09:18:01.513Z,981.6
2018-12-11T09:19:04.123Z,981.8
2018-12-11T09:20:05.509Z,981.9
2018-12-11T09:21:06.919Z,981.8
2018-12-11T09:22:08.404Z,982
2018-12-11T09:23:09.959Z,982.1
2018-12-11T09:24:14.274Z,982
2018-12-11T09:25:15.679Z,982.1
2018-12-11T09:26:17.607Z,982.1
2018-12-11T09:27:19.056Z,982.1
2018-12-11T09:28:20.718Z,982
2018-12-11T09:29:22.116Z,982
2018-12-11T09:30:23.503Z,982.1
2018-12-11T09:31:24.876Z,982.2
2018-12-11T09:32:26.326Z,982.1
2018-12-11T09:33:27.672Z,982
2018-12-11T09:34:29.086Z,982
2018-12-11T09:35:30.492Z,981.9
2018-12-11T09:36:31.917Z,981.8
2018-12-11T09:37:33.294Z,982
2018-12-11T09:38:34.626Z,982.2
2018-12-11T09:39:35.897Z,982
2018-12-11T09:40:37.520Z,982.1
2018-12-11T09:41:41.947Z,982
2018-12-11T09:42:45.833Z,982.1
2018-12-11T09:43:47.192Z,982
2018-12-11T09:44:48.624Z,982.1
2018-12-11T09:45:52.268Z,982.1
2018-12-11T09:46:53.718Z,981.7
2018-12-11T09:47:55.313Z,981.7
2018-12-11T09:48:56.697Z,981.9
2018-12-11T09:49:58.094Z,982.1
2018-12-11T09:50:59.479Z,982.1
2018-12-11T09:52:01.030Z,982.1
2018-12-11T09:53:05.172Z,982.2
2018-12-11T09:54:06.552Z,982
2018-12-11T09:55:10.105Z,982.2
2018-12-11T09:56:11.639Z,982.1
2018-12-11T09:57:13.149Z,982.1
2018-12-11T09:58:16.678Z,982
2018-12-11T09:59:24.578Z,982.2
2018-12-11T10:00:28.312Z,982.1
2018-12-11T10:01:33.581Z,982.2
2018-12-11T10:02:37.434Z,982
2018-12-11T10:03:39.672Z,982.2
2018-12-11T10:04:42.513Z,982.1
2018-12-11T10:05:43.963Z,982.1
2018-12-11T10:06:45.398Z,982.1
2018-12-11T10:07:46.784Z,981.9
2018-12-11T10:08:48.174Z,982.1
2018-12-11T10:09:49.661Z,982.3
2018-12-11T10:10:53.110Z,982.2
2018-12-11T10:11:54.717Z,982.1
2018-12-11T10:12:58.907Z,982.1
2018-12-11T10:14:02.293Z,982
2018-12-11T10:15:03.692Z,982.2
2018-12-11T10:16:05.676Z,982.2
2018-12-11T10:17:07.118Z,982.1
2018-12-11T10:18:08.766Z,982.4
2018-12-11T10:19:13.417Z,982.4
2018-12-11T10:20:24.087Z,982.3
2018-12-11T10:21:25.564Z,982.3
2018-12-11T10:22:29.839Z,982.2
2018-12-11T10:23:34.603Z,982.4
2018-12-11T10:24:35.993Z,982.3
2018-12-11T10:25:37.706Z,982.3
2018-12-11T10:26:45.061Z,982.2
2018-12-11T10:27:46.520Z,982.1
2018-12-11T10:28:52.157Z,982.3
2018-12-11T10:29:53.719Z,982.2
2018-12-11T10:30:58.693Z,982.3
2018-12-11T10:32:00.148Z,982.3
2018-12-11T10:33:04.428Z,982.2
2018-12-11T10:34:07.477Z,982.2
2018-12-11T10:35:11.420Z,981.8
2018-12-11T10:36:12.808Z,981.8
2018-12-11T10:37:14.218Z,982.2
2018-12-11T10:38:15.694Z,982.2
2018-12-11T10:39:22.537Z,982
2018-12-11T10:40:25.011Z,982.2
2018-12-11T10:41:28.676Z,982.1
2018-12-11T10:42:32.584Z,982.1
2018-12-11T10:43:34.423Z,982.2
2018-12-11T10:44:38.541Z,982.1
2018-12-11T10:45:43.222Z,982.1
2018-12-11T10:46:46.152Z,982.1
2018-12-11T10:47:47.624Z,982
2018-12-11T10:48:50.598Z,982.1
2018-12-11T10:49:52.002Z,982.2
2018-12-11T10:50:53.462Z,982
2018-12-11T10:51:55.870Z,981.9
2018-12-11T10:52:57.977Z,982
2018-12-11T10:54:04.863Z,981.8
2018-12-11T10:55:09.236Z,982.1
2018-12-11T10:56:10.610Z,982.1
2018-12-11T10:57:11.989Z,982.1
2018-12-11T10:58:13.627Z,982.1
2018-12-11T10:59:15.065Z,982.1
2018-12-11T11:00:16.445Z,981.8
2018-12-11T11:01:18.023Z,982
2018-12-11T11:02:19.735Z,982
2018-12-11T11:03:22.087Z,981.9
2018-12-11T11:04:23.506Z,981.8
2018-12-11T11:05:25.051Z,981.6
2018-12-11T11:06:27.081Z,982.1
2018-12-11T11:07:28.706Z,982.1
2018-12-11T11:08:30.096Z,982.1
2018-12-11T11:09:31.577Z,982
2018-12-11T11:10:32.978Z,982.1
2018-12-11T11:11:37.363Z,982
2018-12-11T11:12:40.384Z,982.1
2018-12-11T11:13:41.853Z,982
2018-12-11T11:14:43.355Z,982.1
2018-12-11T11:15:47.996Z,981.9
2018-12-11T11:16:51.156Z,982.2
2018-12-11T11:17:52.596Z,982.1
2018-12-11T11:18:53.960Z,982.2
2018-12-11T11:19:55.402Z,982.1
2018-12-11T11:20:58.071Z,982
2018-12-11T11:21:59.662Z,982.2
2018-12-11T11:23:01.011Z,982.2
2018-12-11T11:24:02.362Z,982.2
2018-12-11T11:25:03.743Z,982.2
2018-12-11T11:26:05.307Z,982.2
2018-12-11T11:27:06.933Z,982.3
2018-12-11T11:28:08.307Z,982.3
2018-12-11T11:29:11.913Z,982.3
2018-12-11T11:30:18.294Z,982.3
2018-12-11T11:31:19.715Z,982.3
2018-12-11T11:32:21.494Z,982.3
2018-12-11T11:33:23.025Z,982.4
2018-12-11T11:34:24.390Z,982.3
2018-12-11T11:35:25.949Z,982.3
2018-12-11T11:36:27.361Z,982.3
2018-12-11T11:37:31.623Z,982.3
2018-12-11T11:38:38.129Z,982.3
2018-12-11T11:39:39.790Z,982.3
2018-12-11T11:40:41.528Z,982.4
2018-12-11T11:41:42.920Z,982.3
2018-12-11T11:42:44.406Z,982.3
2018-12-11T11:43:46.044Z,982.3
2018-12-11T11:44:58.296Z,982.3
2018-12-11T11:45:59.695Z,982.4
2018-12-11T11:47:01.710Z,982.3
2018-12-11T11:48:03.318Z,982.4
2018-12-11T11:49:04.770Z,982.4
2018-12-11T11:50:06.202Z,982.4
2018-12-11T11:51:08.021Z,982.4
2018-12-11T11:52:09.459Z,982.5
2018-12-11T11:53:15.187Z,982.4
2018-12-11T11:54:19.162Z,982.4
2018-12-11T11:55:21.232Z,982.1
2018-12-11T11:56:22.683Z,982.4
2018-12-11T11:57:31.090Z,982.2
2018-12-11T11:58:35.443Z,982.4
2018-12-11T11:59:36.864Z,982.4
2018-12-11T12:00:38.366Z,982.4
2018-12-11T12:01:39.789Z,982.4
2018-12-11T12:02:41.351Z,982.4
2018-12-11T12:03:43.338Z,982.2
2018-12-11T12:04:44.919Z,981.8
2018-12-11T12:05:46.488Z,982.4
2018-12-11T12:06:49.805Z,982.2
2018-12-11T12:07:52.305Z,982.4
2018-12-11T12:09:00.104Z,982.2
2018-12-11T12:10:04.371Z,982.2
2018-12-11T12:11:05.807Z,982.3
2018-12-11T12:12:07.478Z,982.5
2018-12-11T12:13:09.332Z,982.5
2018-12-11T12:14:12.121Z,982.4
2018-12-11T12:15:15.214Z,982.4
2018-12-11T12:16:19.608Z,982.5
2018-12-11T12:17:23.178Z,982.3
2018-12-11T12:18:26.723Z,982.1
2018-12-11T12:19:31.563Z,982.6
2018-12-11T12:20:33.592Z,982.5
2018-12-11T12:21:37.444Z,981.9
2018-12-11T12:22:45.225Z,982.4
2018-12-11T12:23:49.488Z,982.3
2018-12-11T12:24:53.382Z,982.4
2018-12-11T12:25:59.576Z,982.4
2018-12-11T12:27:01.044Z,982.5
2018-12-11T12:28:02.476Z,982.2
2018-12-11T12:29:03.933Z,982.6
2018-12-11T12:30:06.791Z,982.7
2018-12-11T12:31:12.030Z,982.6
2018-12-11T12:32:13.519Z,982.6
2018-12-11T12:33:15.056Z,982.3
2018-12-11T12:34:16.718Z,982.7
2018-12-11T12:35:18.374Z,982.6
2018-12-11T12:36:19.818Z,982.6
2018-12-11T12:37:21.222Z,982.1
2018-12-11T12:38:23.692Z,982.4
2018-12-11T12:39:28.594Z,982.4
2018-12-11T12:40:30.058Z,982.5
2018-12-11T12:41:31.727Z,982.5
2018-12-11T12:42:33.478Z,982.5
2018-12-11T12:43:34.984Z,982.5
2018-12-11T12:44:48.241Z,982.3
2018-12-11T12:45:49.745Z,982.3
2018-12-11T12:46:51.250Z,982.5
2018-12-11T12:47:52.633Z,982.4
2018-12-11T12:48:54.307Z,982.4
2018-12-11T12:49:56.269Z,982.3
2018-12-11T12:50:57.786Z,982.2
2018-12-11T12:51:59.625Z,982.3
2018-12-11T12:53:01.069Z,982.1
2018-12-11T12:54:02.441Z,982.3
2018-12-11T12:55:03.865Z,982.5
2018-12-11T12:56:05.422Z,982.3
2018-12-11T12:57:06.857Z,981.9
2018-12-11T12:58:08.317Z,982.4
2018-12-11T12:59:12.308Z,982.4
2018-12-11T13:00:13.695Z,982.2
2018-12-11T13:01:18.095Z,982.5
2018-12-11T13:02:19.540Z,982.2
2018-12-11T13:03:20.945Z,982.5
2018-12-11T13:04:23.279Z,982.1
2018-12-11T13:05:24.709Z,982.3
2018-12-11T13:06:27.250Z,982.4
2018-12-11T13:07:28.735Z,982.3
2018-12-11T13:08:33.251Z,982.4
2018-12-11T13:09:35.223Z,982.4
2018-12-11T13:10:36.694Z,982.4
2018-12-11T13:11:39.820Z,982.5
2018-12-11T13:12:41.984Z,981.9
2018-12-11T13:13:43.447Z,982.5
2018-12-11T13:14:48.959Z,982.4
2018-12-11T13:15:50.597Z,982.4
2018-12-11T13:16:52.991Z,982.4
2018-12-11T13:17:54.418Z,982.1
2018-12-11T13:19:02.266Z,982.5
2018-12-11T13:20:04.858Z,982.5
2018-12-11T13:21:06.603Z,982.5
2018-12-11T13:22:08.490Z,982.5
2018-12-11T13:23:10.666Z,982.5
2018-12-11T13:24:12.447Z,982.4
2018-12-11T13:25:19.650Z,982.5
2018-12-11T13:26:23.148Z,982.5
2018-12-11T13:27:24.646Z,982.6
2018-12-11T13:28:26.076Z,982.5
2018-12-11T13:29:27.865Z,982.5
2018-12-11T13:30:29.265Z,982.5
2018-12-11T13:31:30.903Z,982.5
2018-12-11T13:32:32.362Z,982.6
2018-12-11T13:33:36.970Z,981.9
2018-12-11T13:34:38.476Z,982.5
2018-12-11T13:35:40.429Z,982.6
2018-12-11T13:36:42.288Z,982.5